Time;durP1;ratioP1;P1;durP2;ratioP2;P2;SDS_P1;SDS_P2;PMS_P1;PMS_P2;Temp;Humidity;BMP_temperature;BMP_pressure;BME280_temperature;BME280_humidity;BME280_pressure;Samples;Min_cycle;Max_cycle;Signal;HPM_P1;HPM_P2
2022/06/04 00:00:57;;;;;;;8.43;7.50;;;22.00;99.90;;;;;;5031235;28;20495;-77
2022/06/04 00:03:27;;;;;;;8.83;7.87;;;22.00;99.90;;;;;;5016517;28;20518;-77
2022/06/04 00:05:57;;;;;;;7.70;7.10;;;22.00;99.90;;;;;;5012090;28;20489;-77
2022/06/04 00:08:27;;;;;;;7.57;7.03;;;22.00;99.90;;;;;;5013432;28;20460;-77
2022/06/04 00:16:29;;;;;;;7.30;6.70;;;21.90;99.90;;;;;;5020420;28;20451;-78
2022/06/04 00:18:58;;;;;;;8.13;7.33;;;21.80;99.90;;;;;;5012468;28;20453;-77
2022/06/04 00:21:27;;;;;;;7.50;6.83;;;21.80;99.90;;;;;;5015803;28;20476;-78
2022/06/04 00:23:55;;;;;;;8.07;7.27;;;21.80;99.90;;;;;;5020974;28;20479;-78
2022/06/04 00:26:23;;;;;;;7.97;6.93;;;21.80;99.90;;;;;;5014197;28;20517;-78
2022/06/04 00:28:53;;;;;;;7.67;6.87;;;21.80;99.90;;;;;;5013683;28;20849;-77
2022/06/04 00:31:21;;;;;;;7.77;6.93;;;21.70;99.90;;;;;;5019954;28;20962;-78
2022/06/04 00:33:49;;;;;;;8.10;7.40;;;21.70;99.90;;;;;;5015131;28;20521;-77
2022/06/04 00:36:18;;;;;;;7.30;6.80;;;21.70;99.90;;;;;;5015789;28;20439;-77
2022/06/04 00:38:48;;;;;;;8.23;7.40;;;21.70;99.90;;;;;;5015795;28;21233;-77
2022/06/04 00:41:26;;;;;;;8.93;8.13;;;21.60;99.90;;;;;;5018320;28;21118;-77
2022/06/04 00:44:02;;;;;;;8.07;6.90;;;21.60;99.90;;;;;;5013449;28;20442;-77
2022/06/04 00:47:09;;;;;;;7.93;7.17;;;21.60;99.90;;;;;;5013753;28;20483;-77
2022/06/04 00:49:37;;;;;;;7.80;7.10;;;21.60;99.90;;;;;;5013355;28;20485;-77
2022/06/04 00:52:14;;;;;;;8.53;7.73;;;21.60;99.90;;;;;;5015455;28;20556;-77
2022/06/04 00:54:45;;;;;;;8.77;7.80;;;21.60;99.90;;;;;;5014383;28;20467;-77
2022/06/04 00:57:55;;;;;;;8.40;7.70;;;21.60;99.90;;;;;;5021565;28;21059;-77
2022/06/04 01:00:29;;;;;;;7.33;6.70;;;21.50;99.90;;;;;;5023264;28;20453;-77
2022/06/04 01:03:27;;;;;;;7.63;7.03;;;21.50;1.00;;;;;;5013732;28;20477;-77
2022/06/04 01:06:24;;;;;;;8.23;7.53;;;21.50;1.00;;;;;;5014448;28;21176;-77
2022/06/04 01:09:25;;;;;;;9.17;8.30;;;21.60;1.00;;;;;;5012829;28;20479;-77
2022/06/04 01:12:11;;;;;;;8.07;7.30;;;21.60;1.00;;;;;;5012342;28;20487;-77
2022/06/04 01:15:04;;;;;;;7.93;7.23;;;21.70;1.00;;;;;;5013099;28;20468;-78
2022/06/04 01:17:46;;;;;;;7.27;6.60;;;21.70;1.00;;;;;;5010374;28;20467;-77
2022/06/04 01:20:23;;;;;;;7.60;6.93;;;21.70;1.00;;;;;;5015118;28;20466;-78
2022/06/04 01:23:17;;;;;;;6.50;6.00;;;21.70;99.90;;;;;;5016811;28;20491;-77
2022/06/04 01:26:14;;;;;;;7.80;5.67;;;21.60;99.90;;;;;;5023734;28;20599;-77
2022/06/04 01:28:48;;;;;;;6.93;5.70;;;21.70;99.90;;;;;;5017288;28;20469;-78
2022/06/04 01:31:21;;;;;;;6.87;6.37;;;21.60;99.90;;;;;;5018982;28;20595;-77
2022/06/04 01:33:54;;;;;;;7.00;6.50;;;21.60;99.90;;;;;;5016065;28;20471;-77
2022/06/04 01:36:26;;;;;;;9.03;8.23;;;21.50;99.90;;;;;;5015362;28;20879;-78
2022/06/04 01:38:57;;;;;;;8.40;7.60;;;21.50;1.00;;;;;;5011857;28;20518;-78
2022/06/04 01:41:33;;;;;;;9.53;7.53;;;21.40;1.00;;;;;;5015458;28;20477;-78
2022/06/04 01:44:09;;;;;;;9.43;8.63;;;21.40;1.00;;;;;;5012131;28;20537;-76
2022/06/04 01:46:41;;;;;;;8.77;8.07;;;21.40;1.00;;;;;;5017171;28;20487;-76
2022/06/04 01:49:12;;;;;;;8.40;7.53;;;21.50;1.00;;;;;;5021514;28;20457;-77
2022/06/04 01:51:41;;;;;;;9.80;7.93;;;21.50;1.00;;;;;;5017158;28;20476;-78
2022/06/04 01:54:14;;;;;;;10.03;9.07;;;21.50;1.00;;;;;;5012002;28;21518;-78
2022/06/04 01:56:48;;;;;;;8.00;7.30;;;21.50;1.00;;;;;;5012334;28;20824;-78
2022/06/04 01:59:23;;;;;;;8.33;7.40;;;21.50;1.00;;;;;;5016854;28;20518;-78
2022/06/04 02:01:55;;;;;;;7.40;6.53;;;21.50;1.00;;;;;;5015045;28;20478;-78
2022/06/04 02:04:26;;;;;;;7.20;6.50;;;21.50;1.00;;;;;;5012730;28;20457;-78
2022/06/04 02:09:48;;;;;;;7.97;6.57;;;21.50;1.00;;;;;;5015335;28;20455;-79
2022/06/04 02:12:19;;;;;;;7.13;6.40;;;21.40;1.00;;;;;;5017366;28;20504;-78
2022/06/04 02:14:47;;;;;;;7.57;6.97;;;21.40;1.00;;;;;;5014295;28;20819;-79
2022/06/04 02:17:19;;;;;;;7.00;6.33;;;21.40;1.00;;;;;;5014856;28;20445;-79
2022/06/04 02:19:48;;;;;;;6.93;6.23;;;21.30;1.00;;;;;;5020836;28;20549;-78
2022/06/04 02:22:16;;;;;;;7.90;6.80;;;21.30;1.00;;;;;;5008819;28;20497;-79
2022/06/04 02:24:45;;;;;;;7.40;6.70;;;21.30;1.00;;;;;;5013501;28;20467;-79
2022/06/04 02:27:14;;;;;;;6.97;6.30;;;21.20;1.00;;;;;;5012422;28;20480;-79
2022/06/04 02:29:44;;;;;;;6.47;6.00;;;21.20;99.90;;;;;;5017541;28;20473;-79
2022/06/04 02:32:20;;;;;;;7.87;7.17;;;21.20;1.00;;;;;;5015288;28;20477;-79
2022/06/04 02:34:58;;;;;;;6.93;6.33;;;21.20;99.90;;;;;;5013950;28;20461;-78
2022/06/04 02:37:40;;;;;;;6.50;5.57;;;21.20;99.90;;;;;;5016757;28;20539;-78
2022/06/04 02:40:13;;;;;;;7.47;6.83;;;21.20;99.90;;;;;;5012293;28;20452;-78
2022/06/04 02:42:47;;;;;;;6.10;5.37;;;21.10;99.90;;;;;;5018509;28;20535;-79
2022/06/04 02:45:24;;;;;;;5.80;5.40;;;21.10;99.90;;;;;;5012882;28;20464;-79
2022/06/04 02:47:57;;;;;;;5.50;5.00;;;21.00;99.90;;;;;;5019496;28;20474;-79
2022/06/04 02:50:30;;;;;;;6.57;6.03;;;21.00;99.90;;;;;;5014590;28;20460;-79
2022/06/04 02:53:04;;;;;;;5.57;5.00;;;20.90;99.90;;;;;;5016876;28;20456;-78
2022/06/04 02:55:36;;;;;;;6.70;6.20;;;20.90;99.90;;;;;;5012621;28;20461;-79
2022/06/04 02:58:11;;;;;;;6.67;5.80;;;20.90;99.90;;;;;;5012804;28;20445;-79
2022/06/04 03:00:49;;;;;;;6.43;5.83;;;20.90;99.90;;;;;;5013889;28;20900;-79
2022/06/04 03:03:17;;;;;;;7.20;6.50;;;21.00;99.90;;;;;;5019511;28;20837;-79
2022/06/04 03:05:53;;;;;;;6.87;6.17;;;21.00;99.90;;;;;;5012729;28;20480;-79
2022/06/04 03:08:22;;;;;;;6.27;5.70;;;21.00;99.90;;;;;;5017936;28;20484;-79
2022/06/04 03:10:51;;;;;;;5.97;5.47;;;21.00;99.90;;;;;;5016440;28;20535;-79
2022/06/04 03:13:20;;;;;;;7.20;6.50;;;20.90;99.90;;;;;;5017538;28;20939;-79
2022/06/04 03:15:49;;;;;;;6.90;6.30;;;20.90;99.90;;;;;;5016348;28;21068;-79
2022/06/04 03:18:19;;;;;;;7.67;6.97;;;20.90;99.90;;;;;;5017455;28;20930;-80
2022/06/04 03:20:47;;;;;;;10.20;6.07;;;20.90;99.90;;;;;;5019291;28;20452;-79
2022/06/04 03:23:16;;;;;;;6.77;6.17;;;20.90;99.90;;;;;;5017973;28;20784;-78
2022/06/04 03:25:44;;;;;;;7.07;6.40;;;20.80;99.90;;;;;;5021421;28;20489;-79
2022/06/04 03:28:12;;;;;;;5.27;4.87;;;20.80;99.90;;;;;;5019192;28;20567;-77
2022/06/04 03:30:41;;;;;;;5.27;4.70;;;20.70;1.00;;;;;;5018296;28;20519;-77
2022/06/04 03:33:10;;;;;;;8.33;7.00;;;20.60;1.00;;;;;;5017213;28;20455;-77
2022/06/04 03:35:38;;;;;;;6.53;5.90;;;20.40;1.00;;;;;;5014984;28;20456;-77
2022/06/04 03:38:07;;;;;;;5.70;5.20;;;20.50;1.00;;;;;;5016592;28;20455;-77
2022/06/04 03:40:35;;;;;;;7.23;4.50;;;20.40;1.00;;;;;;5013758;28;20457;-77
2022/06/04 03:43:04;;;;;;;5.50;5.00;;;20.30;64.40;;;;;;5020133;28;20456;-79
2022/06/04 03:45:32;;;;;;;5.70;5.20;;;20.30;99.90;;;;;;5014713;28;20449;-78
2022/06/04 03:48:00;;;;;;;5.63;4.50;;;20.30;99.90;;;;;;5012043;28;20473;-78
2022/06/04 03:50:32;;;;;;;4.80;4.40;;;20.40;96.80;;;;;;5018909;28;20460;-78
2022/06/04 03:53:00;;;;;;;5.20;4.77;;;20.60;54.50;;;;;;5015584;28;20452;-78
2022/06/04 03:55:28;;;;;;;5.20;4.80;;;20.70;1.00;;;;;;5017923;28;20449;-77
2022/06/04 03:57:56;;;;;;;3.90;3.57;;;20.70;19.00;;;;;;5012599;28;20460;-77
2022/06/04 04:00:27;;;;;;;4.87;4.30;;;20.70;32.60;;;;;;5016219;28;21165;-78
2022/06/04 04:02:58;;;;;;;4.50;4.10;;;20.90;1.00;;;;;;5017949;28;20472;-78
2022/06/04 04:05:29;;;;;;;5.20;4.70;;;20.90;1.00;;;;;;5018418;28;20976;-77
2022/06/04 04:07:59;;;;;;;4.57;3.70;;;21.00;1.00;;;;;;5018199;28;20481;-77
2022/06/04 04:10:29;;;;;;;6.17;4.30;;;21.00;1.00;;;;;;5013586;28;20448;-77
2022/06/04 04:12:59;;;;;;;4.50;4.10;;;21.00;1.00;;;;;;5019273;28;20473;-78
2022/06/04 04:15:28;;;;;;;4.27;3.87;;;21.00;1.00;;;;;;5012207;28;20477;-78
2022/06/04 04:17:56;;;;;;;4.93;3.87;;;21.00;1.00;;;;;;5016770;28;20487;-78
2022/06/04 04:20:26;;;;;;;4.70;4.30;;;21.00;1.00;;;;;;5025125;28;20471;-78
2022/06/04 04:22:56;;;;;;;4.10;3.80;;;21.00;1.00;;;;;;5028603;28;20471;-77
2022/06/04 04:25:27;;;;;;;4.70;4.23;;;21.00;1.00;;;;;;5009719;28;20462;-77
2022/06/04 04:27:56;;;;;;;4.77;4.37;;;21.00;1.00;;;;;;5018882;28;20558;-76
2022/06/04 04:30:31;;;;;;;4.60;4.30;;;21.00;1.00;;;;;;5013727;28;20852;-77
2022/06/04 04:32:59;;;;;;;12.43;11.50;;;21.00;1.00;;;;;;5018102;28;20502;-77
2022/06/04 04:35:30;;;;;;;9.53;8.50;;;21.00;1.00;;;;;;5014298;28;20493;-78
2022/06/04 04:37:59;;;;;;;11.17;7.53;;;21.10;1.00;;;;;;5013339;28;20973;-78
2022/06/04 04:40:30;;;;;;;5.87;5.37;;;21.10;1.00;;;;;;5013346;28;20548;-78
2022/06/04 04:42:59;;;;;;;5.77;5.17;;;21.20;1.00;;;;;;5014307;28;20531;-77
2022/06/04 04:45:28;;;;;;;6.50;5.83;;;21.20;1.00;;;;;;5016316;28;20990;-78
2022/06/04 04:47:57;;;;;;;4.73;4.33;;;21.30;1.00;;;;;;5019065;28;20567;-78
2022/06/04 04:50:28;;;;;;;5.17;4.77;;;21.30;1.00;;;;;;5015163;28;20455;-78
2022/06/04 04:52:58;;;;;;;5.77;5.27;;;21.30;1.00;;;;;;5014669;28;20475;-77
2022/06/04 04:55:33;;;;;;;4.60;4.30;;;21.30;16.50;;;;;;5023004;28;20986;-78
2022/06/04 04:58:02;;;;;;;4.03;3.73;;;21.30;1.00;;;;;;5015354;28;20468;-77
2022/06/04 05:00:31;;;;;;;4.27;3.83;;;21.30;10.20;;;;;;5017205;28;20460;-78
2022/06/04 05:03:00;;;;;;;4.30;3.97;;;21.30;51.10;;;;;;5018800;28;20564;-77
2022/06/04 05:05:29;;;;;;;4.90;4.50;;;21.30;1.00;;;;;;5011822;28;20587;-77
2022/06/04 05:07:57;;;;;;;4.53;4.17;;;21.30;1.00;;;;;;5013373;28;20456;-78
2022/06/04 05:10:26;;;;;;;5.17;4.67;;;21.30;1.00;;;;;;5010095;28;20457;-78
2022/06/04 05:12:56;;;;;;;4.83;4.43;;;21.30;1.00;;;;;;5017498;28;20484;-78
2022/06/04 05:15:25;;;;;;;5.07;4.47;;;21.40;1.00;;;;;;5020463;28;20509;-78
2022/06/04 05:17:53;;;;;;;4.40;4.10;;;21.40;1.00;;;;;;5019625;28;20444;-78
2022/06/04 05:20:22;;;;;;;4.50;4.20;;;21.40;1.00;;;;;;5018363;28;20465;-79
2022/06/04 05:22:50;;;;;;;4.60;4.13;;;21.50;1.00;;;;;;5015856;28;20473;-78
2022/06/04 05:25:18;;;;;;;4.63;4.17;;;21.50;1.00;;;;;;5018997;28;20532;-77
2022/06/04 05:27:47;;;;;;;5.00;4.00;;;21.40;1.00;;;;;;5012756;28;20457;-77
2022/06/04 05:30:16;;;;;;;5.70;3.83;;;21.50;1.00;;;;;;5011828;28;20511;-77
2022/06/04 05:32:45;;;;;;;6.40;4.43;;;21.50;1.00;;;;;;5012686;28;20910;-77
2022/06/04 05:35:13;;;;;;;4.53;4.13;;;21.50;1.00;;;;;;5012872;28;21080;-78
2022/06/04 05:37:41;;;;;;;4.27;3.97;;;21.50;1.00;;;;;;5017884;28;20459;-78
2022/06/04 05:40:10;;;;;;;4.23;3.83;;;21.50;1.00;;;;;;5017990;28;20456;-78
2022/06/04 05:42:38;;;;;;;4.50;4.10;;;21.50;1.00;;;;;;5012198;28;20491;-78
2022/06/04 05:45:08;;;;;;;4.10;3.70;;;21.40;1.00;;;;;;5012782;28;20460;-77
2022/06/04 05:47:37;;;;;;;5.03;4.63;;;21.40;1.00;;;;;;5016084;28;20463;-78
2022/06/04 05:50:06;;;;;;;5.03;4.60;;;21.30;1.00;;;;;;5015304;28;21292;-77
2022/06/04 05:52:34;;;;;;;4.67;4.30;;;21.10;1.00;;;;;;5011441;28;20494;-78
2022/06/04 05:55:03;;;;;;;4.70;4.30;;;21.00;1.00;;;;;;5012063;28;20529;-78
2022/06/04 05:57:32;;;;;;;4.63;4.10;;;20.70;99.90;;;;;;5010671;28;21034;-77
2022/06/04 06:00:00;;;;;;;3.70;3.40;;;20.60;1.00;;;;;;5011598;28;20468;-77
2022/06/04 06:02:28;;;;;;;4.80;3.60;;;20.60;1.00;;;;;;5015122;28;20516;-77
2022/06/04 06:04:58;;;;;;;3.40;3.20;;;20.70;13.60;;;;;;5013301;28;20460;-76
2022/06/04 06:07:26;;;;;;;4.20;3.73;;;20.80;32.40;;;;;;5010213;28;20881;-77
2022/06/04 06:09:54;;;;;;;4.33;3.70;;;20.90;99.90;;;;;;5014206;28;20547;-77
2022/06/04 06:12:22;;;;;;;10.80;5.00;;;20.80;99.90;;;;;;5020035;28;21011;-78
2022/06/04 06:14:51;;;;;;;5.47;4.67;;;20.80;1.00;;;;;;5015456;28;20457;-78
2022/06/04 06:17:19;;;;;;;4.67;3.80;;;20.90;1.00;;;;;;5020937;28;20479;-79
2022/06/04 06:19:47;;;;;;;4.13;3.83;;;20.70;19.30;;;;;;5027032;28;20465;-78
2022/06/04 06:22:16;;;;;;;4.37;3.97;;;20.80;96.00;;;;;;5025500;28;20479;-79
2022/06/04 06:24:44;;;;;;;4.50;4.00;;;20.90;1.00;;;;;;5014859;28;21014;-79
2022/06/04 06:27:12;;;;;;;4.23;3.77;;;20.90;1.00;;;;;;5019857;28;20443;-78
2022/06/04 06:29:41;;;;;;;5.63;3.93;;;20.90;99.90;;;;;;5014129;28;20489;-78
2022/06/04 06:32:09;;;;;;;3.73;3.43;;;21.00;35.40;;;;;;5027633;28;20467;-81
2022/06/04 06:34:37;;;;;;;4.20;3.90;;;21.00;1.00;;;;;;5040714;28;20452;-82
2022/06/04 06:37:05;;;;;;;4.47;4.07;;;21.10;1.00;;;;;;5027043;28;20913;-81
2022/06/04 06:39:35;;;;;;;6.70;3.80;;;21.10;1.00;;;;;;5018706;28;21043;-81
2022/06/04 06:42:05;;;;;;;5.17;4.77;;;21.20;1.00;;;;;;5005012;28;20488;-80
2022/06/04 06:44:33;;;;;;;4.60;4.20;;;21.30;25.70;;;;;;5018174;28;20531;-81
2022/06/04 06:47:02;;;;;;;5.50;4.23;;;21.30;1.00;;;;;;5017456;28;20462;-81
2022/06/04 06:49:31;;;;;;;6.20;4.73;;;21.30;1.00;;;;;;5019228;28;21031;-81
2022/06/04 06:52:01;;;;;;;4.47;4.17;;;21.40;1.00;;;;;;5014101;28;20490;-80
2022/06/04 06:54:33;;;;;;;6.87;3.73;;;21.40;1.00;;;;;;5026783;28;20463;-80
2022/06/04 06:57:06;;;;;;;3.37;3.17;;;21.50;1.00;;;;;;5024272;28;20988;-81
2022/06/04 06:59:35;;;;;;;5.00;3.63;;;21.50;1.00;;;;;;5021952;28;20453;-81
2022/06/04 07:02:03;;;;;;;3.73;3.43;;;21.60;1.00;;;;;;5017526;28;20476;-81
2022/06/04 07:04:31;;;;;;;5.40;4.20;;;21.60;1.00;;;;;;5015981;28;20462;-80
2022/06/04 07:07:01;;;;;;;7.07;4.73;;;21.60;1.00;;;;;;5017141;28;20450;-82
2022/06/04 07:09:32;;;;;;;4.83;4.33;;;21.60;99.90;;;;;;5018268;28;21041;-80
2022/06/04 07:12:03;;;;;;;5.43;4.20;;;21.60;1.00;;;;;;5020531;28;20477;-80
2022/06/04 07:14:31;;;;;;;6.00;3.97;;;21.60;1.00;;;;;;5015036;28;20454;-79
2022/06/04 07:17:00;;;;;;;5.97;5.37;;;21.60;99.90;;;;;;5018062;28;20805;-80
2022/06/04 07:19:28;;;;;;;5.80;4.53;;;21.70;99.90;;;;;;5024253;28;20497;-80
2022/06/04 07:21:57;;;;;;;4.70;4.30;;;21.70;1.00;;;;;;5026734;28;20501;-80
2022/06/04 07:24:26;;;;;;;5.23;4.70;;;21.80;99.90;;;;;;5031195;28;20477;-79
2022/06/04 07:26:54;;;;;;;5.20;4.70;;;21.80;1.00;;;;;;5014772;28;20444;-81
2022/06/04 07:29:26;;;;;;;8.20;5.43;;;21.80;1.00;;;;;;5011858;28;20465;-80
2022/06/04 07:31:54;;;;;;;5.13;4.43;;;22.00;99.90;;;;;;5019530;28;20481;-80
2022/06/04 07:34:22;;;;;;;5.37;4.87;;;22.00;99.90;;;;;;5021327;28;20461;-80
2022/06/04 07:36:52;;;;;;;4.97;4.57;;;22.00;99.90;;;;;;5024348;28;20517;-80
2022/06/04 07:39:20;;;;;;;4.77;4.37;;;22.10;99.90;;;;;;5022539;28;20483;-76
2022/06/04 07:41:51;;;;;;;4.70;4.27;;;22.10;1.00;;;;;;5021392;28;20549;-77
2022/06/04 07:44:21;;;;;;;4.30;4.00;;;22.10;1.00;;;;;;5020472;28;20452;-74
2022/06/04 07:46:51;;;;;;;4.50;4.10;;;22.10;1.00;;;;;;5019579;28;20456;-76
2022/06/04 07:49:21;;;;;;;4.77;4.37;;;22.20;99.90;;;;;;5017011;28;20446;-76
2022/06/04 07:51:50;;;;;;;4.77;4.37;;;22.20;27.20;;;;;;5012653;28;20476;-77
2022/06/04 07:54:19;;;;;;;5.30;4.73;;;22.30;99.90;;;;;;5015979;28;20452;-75
2022/06/04 07:56:48;;;;;;;4.47;4.17;;;22.30;99.90;;;;;;5014149;28;20464;-76
2022/06/04 07:59:16;;;;;;;5.20;4.07;;;22.40;99.90;;;;;;5015785;28;20457;-76
2022/06/04 08:01:45;;;;;;;5.93;3.83;;;22.40;99.90;;;;;;5014783;28;20481;-79
2022/06/04 08:04:15;;;;;;;5.93;5.43;;;22.50;15.40;;;;;;5021921;28;20454;-79
2022/06/04 08:06:43;;;;;;;3.73;3.33;;;22.60;73.30;;;;;;5031023;28;20467;-80
2022/06/04 08:09:12;;;;;;;3.30;3.00;;;22.60;99.90;;;;;;5024439;28;20463;-81
2022/06/04 08:11:41;;;;;;;4.20;3.80;;;22.60;1.00;;;;;;5015007;28;20481;-81
2022/06/04 08:14:14;;;;;;;3.63;3.33;;;22.70;99.90;;;;;;5020319;28;20960;-79
2022/06/04 08:16:44;;;;;;;4.33;2.93;;;22.70;71.90;;;;;;5014921;28;20975;-78
2022/06/04 08:19:14;;;;;;;3.23;3.03;;;22.70;1.00;;;;;;5013925;28;22268;-80
2022/06/04 08:21:42;;;;;;;4.37;2.60;;;22.70;99.90;;;;;;5017053;28;20475;-79
2022/06/04 08:24:12;;;;;;;2.57;2.40;;;22.80;99.90;;;;;;5013555;28;20925;-79
2022/06/04 08:26:42;;;;;;;2.67;2.47;;;22.70;91.20;;;;;;5014174;28;20456;-80
2022/06/04 08:29:11;;;;;;;3.63;2.40;;;22.80;99.90;;;;;;5018580;28;21170;-83
2022/06/04 08:31:39;;;;;;;3.13;2.70;;;22.80;99.90;;;;;;5022185;28;20491;-84
2022/06/04 08:34:07;;;;;;;3.67;3.10;;;22.90;99.90;;;;;;5017479;28;20789;-83
2022/06/04 08:36:37;;;;;;;3.20;2.63;;;23.00;99.90;;;;;;5022580;28;20475;-83
2022/06/04 08:39:06;;;;;;;3.53;2.50;;;23.00;99.90;;;;;;5018823;28;20465;-81
2022/06/04 08:42:00;;;;;;;3.30;2.40;;;23.00;99.90;;;;;;5012740;28;20469;-81
2022/06/04 08:44:33;;;;;;;2.63;2.43;;;23.10;99.90;;;;;;5019594;28;20456;-82
2022/06/04 08:47:11;;;;;;;2.50;2.10;;;23.10;99.90;;;;;;5016977;28;20544;-80
2022/06/04 08:49:44;;;;;;;3.73;2.13;;;23.20;99.90;;;;;;5020743;28;20464;-77
2022/06/04 08:52:19;;;;;;;2.30;2.17;;;23.30;99.90;;;;;;5012675;28;20503;-77
2022/06/04 08:57:46;;;;;;;2.57;2.37;;;23.30;1.00;;;;;;5013827;28;20449;-77
2022/06/04 09:00:20;;;;;;;2.60;2.40;;;23.30;1.00;;;;;;5012821;28;21019;-78
2022/06/04 09:03:05;;;;;;;2.87;2.67;;;23.40;99.90;;;;;;5017823;28;21004;-78
2022/06/04 09:06:04;;;;;;;2.40;2.13;;;23.40;99.90;;;;;;5014144;28;20461;-78
2022/06/04 09:08:42;;;;;;;5.23;2.20;;;23.50;99.90;;;;;;5013105;28;20465;-78
2022/06/04 09:11:14;;;;;;;6.37;2.50;;;23.60;99.90;;;;;;5019123;28;20487;-78
2022/06/04 09:13:48;;;;;;;2.80;2.60;;;23.60;99.90;;;;;;5015165;28;20822;-76
2022/06/04 09:16:27;;;;;;;2.70;2.20;;;23.60;54.10;;;;;;5014355;28;20452;-76
2022/06/04 09:19:00;;;;;;;2.37;2.17;;;23.70;1.00;;;;;;5014937;28;20512;-76
2022/06/04 09:21:40;;;;;;;2.70;2.50;;;23.80;1.00;;;;;;5011851;28;21017;-76
2022/06/04 09:24:10;;;;;;;2.97;2.70;;;23.80;1.00;;;;;;5025050;28;20452;-77
2022/06/04 09:26:43;;;;;;;2.50;2.30;;;23.80;33.00;;;;;;5018887;28;20450;-76
2022/06/04 09:29:36;;;;;;;3.70;2.20;;;23.80;40.80;;;;;;5016085;28;20471;-76
2022/06/04 09:32:12;;;;;;;2.47;2.27;;;23.90;99.90;;;;;;5022179;28;20480;-77
2022/06/04 09:34:46;;;;;;;2.40;2.20;;;23.90;1.00;;;;;;5026355;28;20532;-77
2022/06/04 09:37:15;;;;;;;2.03;1.93;;;23.90;1.00;;;;;;5017994;28;20471;-76
2022/06/04 09:39:48;;;;;;;2.40;2.23;;;24.00;1.00;;;;;;5031740;28;20981;-76
2022/06/04 09:42:24;;;;;;;2.30;2.10;;;24.00;1.00;;;;;;5029674;28;20472;-76
2022/06/04 09:44:57;;;;;;;2.23;2.13;;;24.00;1.00;;;;;;5025105;28;20943;-76
2022/06/04 09:47:33;;;;;;;3.13;2.60;;;24.00;1.00;;;;;;5022469;28;20459;-75
2022/06/04 09:50:05;;;;;;;2.80;2.60;;;24.00;1.00;;;;;;5025345;28;20462;-75
2022/06/04 09:52:37;;;;;;;3.60;3.30;;;24.00;1.00;;;;;;5018146;28;20488;-76
2022/06/04 09:55:18;;;;;;;6.13;3.40;;;24.00;1.00;;;;;;5015749;28;20437;-75
2022/06/04 09:57:57;;;;;;;3.00;2.80;;;24.00;1.00;;;;;;5017438;28;20456;-75
2022/06/04 10:00:28;;;;;;;2.93;2.73;;;24.00;1.00;;;;;;5016317;28;20464;-75
2022/06/04 10:02:58;;;;;;;3.97;3.67;;;24.10;1.00;;;;;;5017171;28;20472;-74
2022/06/04 10:05:30;;;;;;;3.67;3.13;;;24.10;1.00;;;;;;5020337;28;20452;-76
2022/06/04 10:07:58;;;;;;;3.90;3.70;;;24.10;1.00;;;;;;5014972;28;20453;-76
2022/06/04 10:10:34;;;;;;;3.50;3.30;;;24.10;1.00;;;;;;5015178;28;20557;-77
2022/06/04 10:15:59;;;;;;;4.20;3.80;;;24.10;1.00;;;;;;5008386;28;20457;-77
2022/06/04 10:18:30;;;;;;;3.97;3.67;;;24.10;1.00;;;;;;5016490;28;20489;-78
2022/06/04 10:21:02;;;;;;;4.00;3.70;;;24.00;1.00;;;;;;5013803;28;20448;-78
2022/06/04 10:23:40;;;;;;;4.03;3.73;;;24.00;1.00;;;;;;5021831;28;20455;-78
2022/06/04 10:26:49;;;;;;;4.30;4.00;;;24.00;1.00;;;;;;5017173;28;20491;-77
2022/06/04 10:29:40;;;;;;;3.83;3.53;;;24.00;1.00;;;;;;5008967;28;20481;-78
2022/06/04 10:32:18;;;;;;;4.20;3.90;;;24.00;1.00;;;;;;5021041;28;20490;-77
2022/06/04 10:35:14;;;;;;;3.80;3.50;;;24.00;1.00;;;;;;5016575;28;20455;-77
2022/06/04 10:37:55;;;;;;;4.00;3.70;;;24.10;1.00;;;;;;5026868;28;20983;-76
2022/06/04 10:40:39;;;;;;;4.23;3.50;;;24.10;1.00;;;;;;5035488;28;20969;-77
2022/06/04 10:43:41;;;;;;;3.70;3.40;;;24.10;1.00;;;;;;5015586;28;20756;-77
2022/06/04 10:46:18;;;;;;;3.90;3.60;;;24.10;1.00;;;;;;5011476;28;20460;-77
2022/06/04 10:49:00;;;;;;;4.57;4.27;;;24.00;1.00;;;;;;5015377;28;20457;-78
2022/06/04 10:51:44;;;;;;;3.90;3.60;;;24.00;1.00;;;;;;5014777;28;20480;-77
2022/06/04 10:54:16;;;;;;;4.20;3.80;;;24.00;1.00;;;;;;5012812;28;20448;-77
2022/06/04 10:56:49;;;;;;;4.57;4.23;;;24.10;1.00;;;;;;5016248;28;20461;-77
2022/06/04 10:59:24;;;;;;;5.33;4.93;;;24.00;1.00;;;;;;5022013;28;20452;-77
2022/06/04 11:01:58;;;;;;;6.03;5.27;;;24.00;1.00;;;;;;5013061;28;20487;-77
2022/06/04 11:04:36;;;;;;;6.33;5.83;;;24.00;1.00;;;;;;5017171;28;20480;-77
2022/06/04 11:07:27;;;;;;;6.07;5.50;;;24.00;1.00;;;;;;5019833;28;20478;-77
2022/06/04 11:09:57;;;;;;;6.70;6.10;;;24.00;1.00;;;;;;5016834;28;20449;-77
2022/06/04 11:12:35;;;;;;;6.90;5.73;;;24.00;1.00;;;;;;5022060;28;20500;-77
2022/06/04 11:15:10;;;;;;;5.60;5.10;;;24.00;1.00;;;;;;5019521;28;20533;-76
2022/06/04 11:17:46;;;;;;;5.07;4.73;;;24.00;1.00;;;;;;5014350;28;20581;-77
2022/06/04 11:20:18;;;;;;;5.97;5.47;;;24.00;1.00;;;;;;5012398;28;20452;-77
2022/06/04 11:22:56;;;;;;;5.40;4.97;;;24.00;1.00;;;;;;5018474;28;20482;-78
2022/06/04 11:25:27;;;;;;;5.70;5.13;;;24.00;1.00;;;;;;5026364;28;20480;-78
2022/06/04 11:27:59;;;;;;;5.07;4.67;;;24.00;1.00;;;;;;5031278;28;20607;-77
2022/06/04 11:30:41;;;;;;;6.13;5.57;;;24.00;1.00;;;;;;5009274;28;20466;-77
2022/06/04 11:33:27;;;;;;;6.83;6.23;;;23.90;1.00;;;;;;5012326;28;20483;-77
2022/06/04 11:36:02;;;;;;;5.60;5.20;;;23.90;1.00;;;;;;5018572;28;20453;-78
2022/06/04 11:38:45;;;;;;;7.40;6.20;;;24.00;1.00;;;;;;5020251;28;20539;-78
2022/06/04 11:41:26;;;;;;;6.07;5.57;;;23.90;1.00;;;;;;5007919;28;20861;-78
2022/06/04 11:44:20;;;;;;;6.40;5.80;;;24.00;19.10;;;;;;5017017;28;20457;-78
2022/06/04 11:47:04;;;;;;;7.47;6.10;;;23.90;61.90;;;;;;5013630;28;20885;-79
2022/06/04 11:49:38;;;;;;;5.43;4.97;;;23.90;51.30;;;;;;5014871;28;20833;-78
2022/06/04 11:52:18;;;;;;;5.90;5.50;;;23.90;51.50;;;;;;5016257;28;20523;-79
2022/06/04 11:55:17;;;;;;;6.33;5.83;;;23.90;82.10;;;;;;5017048;28;20461;-78
2022/06/04 11:58:00;;;;;;;6.17;5.77;;;24.00;77.10;;;;;;5016700;28;21097;-79
2022/06/04 12:00:32;;;;;;;5.80;5.30;;;24.00;54.00;;;;;;5018300;28;20832;-78
2022/06/04 12:03:10;;;;;;;5.93;5.33;;;24.10;78.10;;;;;;5013995;28;20487;-78
2022/06/04 12:05:46;;;;;;;5.60;5.13;;;24.10;16.30;;;;;;5020610;28;20463;-79
2022/06/04 12:08:18;;;;;;;5.93;5.37;;;24.10;1.00;;;;;;5022343;28;21006;-79
2022/06/04 12:11:14;;;;;;;6.83;6.17;;;24.10;1.00;;;;;;5022074;28;20472;-79
2022/06/04 12:13:54;;;;;;;5.67;5.27;;;24.10;1.00;;;;;;5007753;28;21050;-79
2022/06/04 12:16:28;;;;;;;5.97;5.57;;;24.20;1.00;;;;;;5014454;28;20457;-79
2022/06/04 12:19:03;;;;;;;5.80;5.40;;;24.20;1.00;;;;;;5017013;28;20975;-79
2022/06/04 12:24:37;;;;;;;5.00;4.57;;;24.30;1.00;;;;;;5015328;28;20452;-79
2022/06/04 12:27:09;;;;;;;5.50;5.00;;;24.40;1.00;;;;;;5033875;28;20610;-76
2022/06/04 12:29:46;;;;;;;5.40;5.00;;;24.50;1.00;;;;;;5017971;28;20489;-76
2022/06/04 12:32:28;;;;;;;5.60;5.20;;;24.50;1.00;;;;;;5022617;28;20475;-76
2022/06/04 12:35:15;;;;;;;5.80;5.30;;;24.60;1.00;;;;;;5021270;28;20460;-77
2022/06/04 12:37:47;;;;;;;6.67;6.07;;;24.60;1.00;;;;;;5015244;28;20449;-76
2022/06/04 12:40:29;;;;;;;5.50;5.10;;;24.50;1.00;;;;;;5010226;28;20463;-76
2022/06/04 12:43:09;;;;;;;5.83;5.43;;;24.50;1.00;;;;;;5015042;28;20477;-77
2022/06/04 12:45:41;;;;;;;4.73;4.40;;;24.50;1.00;;;;;;5014865;28;20464;-76
2022/06/04 12:48:25;;;;;;;5.87;5.37;;;24.60;1.00;;;;;;5013327;28;20979;-76
2022/06/04 12:51:04;;;;;;;5.70;5.30;;;24.70;1.00;;;;;;5022099;28;20518;-76
2022/06/04 12:53:35;;;;;;;5.03;4.73;;;24.60;1.00;;;;;;5016417;28;20484;-78
2022/06/04 12:56:07;;;;;;;4.87;4.57;;;24.70;1.00;;;;;;5020502;28;20453;-76
2022/06/04 12:58:39;;;;;;;4.60;4.30;;;24.70;1.00;;;;;;5016587;28;20526;-78
2022/06/04 13:01:26;;;;;;;3.87;3.60;;;24.70;99.90;;;;;;5018140;28;20492;-76
2022/06/04 13:04:19;;;;;;;3.70;3.50;;;24.80;99.90;;;;;;5022938;28;20480;-76
2022/06/04 13:06:51;;;;;;;4.27;3.97;;;24.80;1.00;;;;;;5017487;28;20833;-76
2022/06/04 13:09:50;;;;;;;4.00;3.80;;;24.80;1.00;;;;;;5023381;28;21129;-77
2022/06/04 13:12:28;;;;;;;3.80;3.60;;;24.90;1.00;;;;;;5016511;28;20485;-76
2022/06/04 13:15:08;;;;;;;4.60;4.17;;;24.80;1.00;;;;;;5018848;28;21267;-74
2022/06/04 13:17:42;;;;;;;4.37;4.07;;;25.00;1.00;;;;;;5012306;28;21011;-76
2022/06/04 13:20:37;;;;;;;4.47;4.13;;;25.00;99.90;;;;;;5015243;28;20476;-75
2022/06/04 13:23:20;;;;;;;7.23;3.80;;;25.00;99.90;;;;;;5020376;28;20545;-75
2022/06/04 13:25:56;;;;;;;4.63;4.33;;;25.00;99.90;;;;;;5021220;28;20461;-76
2022/06/04 13:28:28;;;;;;;4.50;3.90;;;25.00;99.90;;;;;;5017615;28;20459;-75
2022/06/04 13:30:56;;;;;;;5.60;3.93;;;25.10;99.90;;;;;;5014930;28;21201;-75
2022/06/04 13:33:25;;;;;;;4.20;3.80;;;25.10;99.90;;;;;;5025698;28;20464;-76
2022/06/04 13:35:55;;;;;;;4.50;4.20;;;25.00;99.90;;;;;;5014209;28;21006;-75
2022/06/04 13:38:29;;;;;;;3.67;3.37;;;25.10;99.90;;;;;;5020183;28;20971;-76
2022/06/04 13:40:59;;;;;;;3.13;2.93;;;25.10;99.90;;;;;;5013132;28;20857;-75
2022/06/04 13:43:29;;;;;;;3.83;3.57;;;25.20;99.90;;;;;;5009780;28;21189;-76